Date,TemperatureHighF,TemperatureAvgF,TemperatureLowF,DewpointHighF,DewpointAvgF,DewpointLowF,HumidityHigh,HumidityAvg,HumidityLow,PressureMaxIn,PressureMinIn,WindSpeedMaxMPH,WindSpeedAvgMPH,GustSpeedMaxMPH,PrecipitationSumIn
2013-3-1,61,46,28,-100,-100,-100,0,0,100,0.00,40.00,0,-999,0,0.00
2013-3-2,51,39,34,-100,-100,-100,0,0,100,0.00,40.00,0,-999,0,0.00
2013-3-3,64,44,25,-100,-100,-100,0,0,100,0.00,40.00,0,-999,0,0.00
2013-3-4,73,59,46,-100,-100,-100,0,0,100,0.00,40.00,0,-999,0,0.00
2013-3-5,67,61,49,-100,-100,-100,0,0,100,0.00,40.00,0,-999,0,0.00
2013-3-6,67,48,30,-100,-100,-100,0,0,100,0.00,40.00,0,-999,0,0.00
2013-3-7,69,53,35,-100,-100,-100,0,0,100,0.00,40.00,0,-999,0,0.00
2013-3-8,73,59,40,-100,-100,-100,0,0,100,0.00,40.00,0,-999,0,0.00
2013-3-9,71,63,56,-100,-100,-100,0,0,100,0.00,40.00,0,-999,0,0.00
2013-3-10,64,56,51,-100,-100,-100,0,0,100,0.00,40.00,0,-999,0,0.00
2013-3-11,57,46,37,-100,-100,-100,0,0,100,0.00,40.00,0,-999,0,0.00
2013-3-12,71,50,29,-100,-100,-100,0,0,100,0.00,40.00,0,-999,0,0.00
2013-3-13,74,51,36,-100,-100,-100,0,0,100,0.00,40.00,0,-999,0,0.00
2013-3-14,71,49,36,-100,-100,-100,0,0,100,0.00,40.00,0,-999,0,0.00
2013-3-15,75,59,40,-100,-100,-100,0,0,100,0.00,40.00,0,-999,0,0.00
2013-3-16,76,63,52,-100,-100,-100,0,0,100,0.00,40.00,0,-999,0,0.00
2013-3-17,75,65,58,-100,-100,-100,0,0,100,0.00,40.00,0,-999,0,0.00
2013-3-18,83,69,64,-100,-100,-100,0,0,100,0.00,40.00,0,-999,0,0.00
2013-3-19,79,67,55,-100,-100,-100,0,0,100,0.00,40.00,0,-999,0,0.00
2013-3-20,72,60,46,-100,-100,-100,0,0,100,0.00,40.00,0,-999,0,0.00
2013-3-21,70,58,46,-100,-100,-100,0,0,100,0.00,40.00,0,-999,0,0.00
2013-3-22,79,69,62,-100,-100,-100,0,0,100,0.00,40.00,0,-999,0,0.00
2013-3-23,72,68,65,-100,-100,-100,0,0,100,0.00,40.00,0,-999,0,0.00
2013-3-24,65,54,42,-100,-100,-100,0,0,100,0.00,40.00,0,-999,0,0.00
2013-3-25,60,45,32,-100,-100,-100,0,0,100,0.00,40.00,0,-999,0,0.00
2013-3-26,58,44,28,-100,-100,-100,0,0,100,0.00,40.00,0,-999,0,0.00
2013-3-27,67,48,29,-100,-100,-100,0,0,100,0.00,40.00,0,-999,0,0.00
2013-3-28,73,57,50,-100,-100,-100,0,0,100,0.00,40.00,0,-999,0,0.00
2013-3-29,75,61,47,-100,-100,-100,0,0,100,0.00,40.00,0,-999,0,0.00
2013-3-30,73,65,59,-100,-100,-100,0,0,100,0.00,40.00,0,-999,0,0.00
2013-3-31,77,65,57,-100,-100,-100,0,0,100,0.00,40.00,0,-999,0,0.00